Auto, West Virginia
Current Conditions -  °F | °C
As of 6:35 PM on Thursday 18 Dec 2014 (Local Time) from KLWB Reporting Station
Overcast Overcast  
Wind Chill: 27°   Ceiling: 9000
Heat Index: 33°   Visibility: 10mi
Dew Point: 23°   Wind: 6mph
Humidity: 67%   Direction: 240°WSW
Pressure: 30.1"   Gusts: NA
Location:  37.96°N, 80.33°W
Report Text: KLWB 182335Z AUTO 24005KT 10SM OVC090 00/M05 A3010 RMK AO2 T00041050
Loading
Personal Weather Stations






























Interactive Weather Map New forecast layout! Learn more

10-Day Weather Forecast

Advertisements
Track Severe Weather on mobile